Time;durP1;ratioP1;P1;durP2;ratioP2;P2;SDS_P1;SDS_P2;PMS_P1;PMS_P2;Temp;Humidity;BMP_temperature;BMP_pressure;BME280_temperature;BME280_humidity;BME280_pressure;Samples;Min_cycle;Max_cycle;Signal;HPM_P1;HPM_P2
2022/09/07 00:01:39;;;;;;;15.80;9.33;;;;;;;4.45;100.00;100409.39;1707265;81;21140;-43
2022/09/07 00:04:07;;;;;;;16.93;8.90;;;;;;;4.45;100.00;100413.39;1683348;82;21155;-46
2022/09/07 00:06:34;;;;;;;14.27;9.50;;;;;;;4.44;100.00;100415.62;1674170;83;22269;-42
2022/09/07 00:09:01;;;;;;;18.43;10.37;;;;;;;4.43;100.00;100412.97;1686921;82;21062;-44
2022/09/07 00:11:28;;;;;;;17.53;10.00;;;;;;;4.43;100.00;100407.63;1656151;85;21070;-42
2022/09/07 00:13:54;;;;;;;18.47;11.13;;;;;;;4.46;100.00;100413.82;1652962;85;21556;-46
2022/09/07 00:16:28;;;;;;;23.20;11.97;;;;;;;4.48;100.00;100405.81;1650767;85;21145;-43
2022/09/07 00:18:56;;;;;;;22.82;12.25;;;;;;;4.49;100.00;100406.25;1652639;85;21436;-43
2022/09/07 00:21:23;;;;;;;20.97;12.23;;;;;;;4.49;100.00;100413.80;1652816;85;21081;-42
2022/09/07 00:23:49;;;;;;;20.80;12.57;;;;;;;4.49;100.00;100404.47;1649141;85;21066;-43
2022/09/07 00:26:19;;;;;;;20.47;11.90;;;;;;;4.50;100.00;100402.69;1648229;85;21079;-45
2022/09/07 00:28:45;;;;;;;23.10;12.97;;;;;;;4.48;100.00;100403.14;1651741;85;21073;-42
2022/09/07 00:31:15;;;;;;;23.50;12.37;;;;;;;4.43;100.00;100399.64;1652434;85;21849;-44
2022/09/07 00:33:42;;;;;;;17.87;12.13;;;;;;;4.37;100.00;100405.06;1648348;85;21526;-43
2022/09/07 00:36:09;;;;;;;23.93;12.83;;;;;;;4.26;100.00;100403.85;1652195;85;21135;-43
2022/09/07 00:38:36;;;;;;;21.70;12.13;;;;;;;4.19;100.00;100398.17;1655933;85;21131;-42
2022/09/07 00:41:03;;;;;;;24.43;12.37;;;;;;;4.16;100.00;100391.56;1648254;85;21174;-45
2022/09/07 00:43:40;;;;;;;23.97;11.23;;;;;;;4.15;100.00;100393.34;1653521;85;21575;-42
2022/09/07 00:46:21;;;;;;;19.17;11.60;;;;;;;4.15;100.00;100393.80;1650709;85;21087;-43
2022/09/07 00:49:08;;;;;;;22.00;11.83;;;;;;;4.19;100.00;100395.51;1632638;85;21093;-45
2022/09/07 00:51:54;;;;;;;20.53;11.33;;;;;;;4.22;100.00;100394.15;1651557;85;21074;-43
2022/09/07 00:54:27;;;;;;;23.07;12.20;;;;;;;4.23;100.00;100395.03;1648286;85;21113;-43
2022/09/07 00:56:53;;;;;;;22.57;11.87;;;;;;;4.24;100.00;100388.80;1633609;86;21115;-45
2022/09/07 00:59:26;;;;;;;22.20;11.77;;;;;;;4.27;100.00;100392.75;1623235;86;21089;-42
2022/09/07 01:01:52;;;;;;;20.10;12.70;;;;;;;4.28;100.00;100392.73;1631056;86;21134;-44
2022/09/07 01:04:19;;;;;;;20.03;12.67;;;;;;;4.27;100.00;100390.96;1630226;86;21619;-45
2022/09/07 01:06:46;;;;;;;25.07;13.87;;;;;;;4.27;100.00;100388.75;1629915;86;21133;-46
2022/09/07 01:09:15;;;;;;;23.93;12.50;;;;;;;4.27;100.00;100388.30;1628294;85;21939;-42
2022/09/07 01:11:49;;;;;;;19.33;11.73;;;;;;;4.25;100.00;100380.80;1686109;82;21175;-43
2022/09/07 01:14:11;;;;;;;19.53;10.80;;;;;;;4.23;100.00;100383.92;1684629;82;21069;-43
2022/09/07 01:17:12;;;;;;;15.77;10.23;;;;;;;4.23;100.00;100382.59;1681484;82;22177;-42
2022/09/07 01:20:08;;;;;;;17.03;10.47;;;;;;;4.22;100.00;100380.83;1683926;82;21383;-44
2022/09/07 01:22:53;;;;;;;16.53;9.43;;;;;;;4.23;100.00;100376.37;1685605;82;21504;-43
2022/09/07 01:25:34;;;;;;;18.17;11.07;;;;;;;4.27;100.00;100372.76;1679238;82;21093;-43
2022/09/07 01:28:24;;;;;;;18.13;10.23;;;;;;;4.29;100.00;100370.96;1681097;82;21808;-46
2022/09/07 01:30:56;;;;;;;18.70;11.20;;;;;;;4.29;100.00;100369.63;1685200;82;21098;-45
2022/09/07 01:33:46;;;;;;;24.47;11.50;;;;;;;4.24;100.00;100367.04;1685034;82;20990;-45
2022/09/07 01:36:35;;;;;;;19.90;10.73;;;;;;;4.22;100.00;100370.16;1682871;82;21154;-45
2022/09/07 01:39:03;;;;;;;18.43;10.67;;;;;;;4.23;100.00;100367.94;1683137;82;21053;-44
2022/09/07 01:41:49;;;;;;;18.03;11.97;;;;;;;4.18;100.00;100364.42;1685107;82;21157;-44
2022/09/07 01:44:33;;;;;;;25.03;11.77;;;;;;;4.13;100.00;100371.61;1692487;82;21071;-43
2022/09/07 01:47:26;;;;;;;18.97;11.23;;;;;;;4.07;100.00;100367.70;1686001;82;21164;-45
2022/09/07 01:50:10;;;;;;;23.50;11.80;;;;;;;4.03;100.00;100367.29;1682904;82;21299;-44
2022/09/07 01:53:03;;;;;;;19.60;11.03;;;;;;;3.94;100.00;100367.39;1683930;82;21052;-45
2022/09/07 01:55:52;;;;;;;15.20;8.90;;;;;;;3.89;100.00;100368.80;1690419;81;21583;-44
2022/09/07 01:58:26;;;;;;;17.87;9.80;;;;;;;3.85;100.00;100372.83;1704523;81;21132;-44
2022/09/07 02:00:57;;;;;;;19.27;9.50;;;;;;;3.80;100.00;100369.78;1677637;83;21057;-45
2022/09/07 02:03:40;;;;;;;16.87;9.43;;;;;;;3.79;100.00;100361.36;1679747;83;21038;-45
2022/09/07 02:06:16;;;;;;;13.93;8.38;;;;;;;3.83;100.00;100354.20;1667422;83;21073;-45
2022/09/07 02:08:52;;;;;;;18.23;9.35;;;;;;;3.84;100.00;100355.08;1692513;82;21725;-45
2022/09/07 02:11:20;;;;;;;16.57;9.63;;;;;;;3.84;100.00;100352.41;1673132;83;20970;-45
2022/09/07 02:13:59;;;;;;;14.73;8.30;;;;;;;3.79;100.00;100356.03;1686806;82;20951;-45
2022/09/07 02:16:28;;;;;;;16.60;8.00;;;;;;;3.74;100.00;100361.84;1655506;85;20912;-45
2022/09/07 02:19:12;;;;;;;16.37;9.53;;;;;;;3.68;100.00;100356.59;1652992;85;21123;-44
2022/09/07 02:21:41;;;;;;;16.10;9.63;;;;;;;3.63;100.00;100358.43;1654331;85;21490;-44
2022/09/07 02:24:18;;;;;;;20.87;10.00;;;;;;;3.55;100.00;100349.64;1655582;85;20952;-44
2022/09/07 02:26:47;;;;;;;16.33;8.23;;;;;;;3.49;100.00;100347.02;1653616;85;21000;-44
2022/09/07 02:29:13;;;;;;;17.87;7.93;;;;;;;3.45;100.00;100351.95;1656365;85;21418;-44
2022/09/07 02:31:39;;;;;;;16.60;7.80;;;;;;;3.42;100.00;100349.31;1652670;85;20963;-45
2022/09/07 02:34:06;;;;;;;13.33;6.90;;;;;;;3.40;100.00;100350.66;1630810;85;21012;-44
2022/09/07 02:36:36;;;;;;;13.10;6.83;;;;;;;3.39;100.00;100350.70;1656416;85;21522;-45
2022/09/07 02:39:03;;;;;;;13.27;8.43;;;;;;;3.41;100.00;100349.77;1657481;85;21095;-44
2022/09/07 02:41:39;;;;;;;16.33;7.87;;;;;;;3.47;100.00;100348.84;1650737;85;21039;-44
2022/09/07 02:44:09;;;;;;;18.67;9.60;;;;;;;3.52;100.00;100345.67;1655250;85;20996;-44
2022/09/07 02:47:18;;;;;;;16.37;9.00;;;;;;;3.57;100.00;100345.19;1658894;85;20940;-44
2022/09/07 02:50:11;;;;;;;14.53;8.47;;;;;;;3.61;100.00;100351.34;1651414;85;21415;-44
2022/09/07 02:52:46;;;;;;;13.47;8.03;;;;;;;3.63;100.00;100347.78;1654681;85;20998;-44
2022/09/07 02:55:51;;;;;;;17.53;8.47;;;;;;;3.64;100.00;100342.89;1648936;85;21218;-44
2022/09/07 02:58:32;;;;;;;15.70;9.50;;;;;;;3.62;100.00;100343.35;1651713;86;21070;-44
2022/09/07 03:01:31;;;;;;;12.40;7.80;;;;;;;3.59;100.00;100341.16;1647089;85;21554;-44
2022/09/07 03:04:35;;;;;;;16.77;8.23;;;;;;;3.54;100.00;100341.67;1685037;82;21349;-43
2022/09/07 03:07:10;;;;;;;11.00;6.50;;;;;;;3.46;100.00;100344.86;1685910;82;21367;-44
2022/09/07 03:09:38;;;;;;;13.43;6.37;;;;;;;3.41;100.00;100344.89;1683339;82;22350;-44
2022/09/07 03:12:06;;;;;;;11.13;6.43;;;;;;;3.36;100.00;100348.05;1686430;82;21058;-44
2022/09/07 03:14:34;;;;;;;12.20;6.57;;;;;;;3.32;100.00;100346.30;1667181;83;21062;-44
2022/09/07 03:17:01;;;;;;;10.83;6.10;;;;;;;3.27;100.00;100345.03;1707542;81;21528;-43
2022/09/07 03:19:28;;;;;;;13.17;6.87;;;;;;;3.22;100.00;100344.20;1702326;81;21088;-44
2022/09/07 03:21:54;;;;;;;14.60;7.90;;;;;;;3.20;100.00;100348.66;1694335;82;21150;-44
2022/09/07 03:24:21;;;;;;;13.13;7.53;;;;;;;3.19;100.00;100346.00;1701783;81;21538;-44
2022/09/07 03:26:47;;;;;;;12.27;8.07;;;;;;;3.19;100.00;100344.67;1701160;81;21069;-44
2022/09/07 03:29:14;;;;;;;16.23;7.90;;;;;;;3.20;100.00;100345.11;1703550;81;21093;-44
2022/09/07 03:31:40;;;;;;;14.50;6.87;;;;;;;3.20;100.00;100341.12;1698315;81;21516;-44
2022/09/07 03:34:07;;;;;;;13.50;6.87;;;;;;;3.20;100.00;100341.12;1701210;81;21159;-45
2022/09/07 03:36:34;;;;;;;12.50;6.90;;;;;;;3.16;100.00;100342.02;1698125;82;21065;-44
2022/09/07 03:39:00;;;;;;;10.23;6.67;;;;;;;3.11;100.00;100345.19;1697604;81;21610;-45
2022/09/07 03:41:27;;;;;;;13.93;6.03;;;;;;;3.05;100.00;100343.47;1698637;81;21128;-44
2022/09/07 03:43:53;;;;;;;9.80;4.80;;;;;;;3.04;100.00;100343.92;1699677;81;21166;-44
2022/09/07 03:46:20;;;;;;;8.50;4.60;;;;;;;3.05;100.00;100351.45;1701081;81;21243;-44
2022/09/07 03:48:47;;;;;;;9.77;5.47;;;;;;;3.04;100.00;100352.34;1695583;81;21054;-45
2022/09/07 03:51:15;;;;;;;9.60;4.27;;;;;;;3.03;100.00;100347.47;1698650;81;21084;-44
2022/09/07 03:53:43;;;;;;;9.30;5.63;;;;;;;3.03;100.00;100350.13;1703910;81;21089;-45
2022/09/07 03:56:19;;;;;;;7.30;5.57;;;;;;;3.08;100.00;100351.41;1704735;81;21069;-44
2022/09/07 03:58:46;;;;;;;7.73;5.90;;;;;;;3.13;100.00;100354.05;1697621;83;21116;-45
2022/09/07 04:01:16;;;;;;;13.47;6.63;;;;;;;3.18;100.00;100350.88;1698567;83;21073;-44
2022/09/07 04:03:43;;;;;;;11.50;6.53;;;;;;;3.23;100.00;100349.93;1701939;83;21053;-45
2022/09/07 04:06:10;;;;;;;12.83;6.67;;;;;;;3.28;100.00;100352.56;1702487;83;21113;-44
2022/09/07 04:08:39;;;;;;;9.57;5.93;;;;;;;3.34;100.00;100351.17;1703694;83;22310;-45
2022/09/07 04:11:07;;;;;;;8.70;6.37;;;;;;;3.40;100.00;100357.78;1698141;83;21856;-44
2022/09/07 04:13:35;;;;;;;11.57;6.77;;;;;;;3.47;100.00;100355.94;1703323;83;21117;-46
2022/09/07 04:16:13;;;;;;;10.33;5.97;;;;;;;3.53;100.00;100354.54;1700333;83;21147;-45
2022/09/07 04:18:40;;;;;;;10.80;5.57;;;;;;;3.60;100.00;100353.58;1698444;83;21602;-45
2022/09/07 04:21:07;;;;;;;11.37;5.37;;;;;;;3.69;100.00;100355.69;1703193;83;21061;-45
2022/09/07 04:23:35;;;;;;;7.87;4.47;;;;;;;3.80;100.00;100351.14;1705874;83;21140;-44
2022/09/07 04:26:01;;;;;;;9.03;5.30;;;;;;;3.93;100.00;100349.20;1704442;83;21081;-44
2022/09/07 04:28:28;;;;;;;10.07;5.33;;;;;;;4.04;100.00;100349.96;1699393;83;21143;-44
2022/09/07 04:30:54;;;;;;;6.43;4.27;;;;;;;4.18;100.00;100348.44;1703419;83;21711;-45
2022/09/07 04:33:21;;;;;;;8.87;3.97;;;;;;;4.29;100.00;100347.86;1703187;83;21087;-44
2022/09/07 04:35:47;;;;;;;9.37;5.27;;;;;;;4.46;100.00;100352.95;1696521;83;21143;-44
2022/09/07 04:38:14;;;;;;;6.13;4.30;;;;;;;4.69;100.00;100346.83;1704242;83;21085;-44
2022/09/07 04:40:41;;;;;;;6.47;3.93;;;;;;;5.01;100.00;100346.80;1701021;83;21104;-45
2022/09/07 04:43:08;;;;;;;8.70;4.10;;;;;;;5.43;100.00;100341.19;1701958;83;21124;-45
2022/09/07 04:45:38;;;;;;;6.27;3.70;;;;;;;5.86;100.00;100340.80;1702938;83;21151;-46
2022/09/07 04:48:05;;;;;;;5.17;3.03;;;;;;;6.31;100.00;100340.77;1703948;83;21184;-45
2022/09/07 04:50:31;;;;;;;2.70;2.37;;;;;;;6.58;100.00;100338.83;1702133;83;21042;-44
2022/09/07 04:52:58;;;;;;;3.03;2.17;;;;;;;6.74;100.00;100341.58;1699558;82;21485;-44
2022/09/07 04:55:24;;;;;;;4.33;2.47;;;;;;;6.86;100.00;100340.88;1698475;83;21633;-44
2022/09/07 04:57:51;;;;;;;3.67;1.90;;;;;;;6.91;100.00;100341.17;1697694;83;21450;-45
2022/09/07 05:00:19;;;;;;;6.97;2.50;;;;;;;7.01;100.00;100340.04;1699266;83;21780;-43
2022/09/07 05:02:45;;;;;;;4.40;1.97;;;;;;;7.12;100.00;100342.47;1703514;83;21069;-45
2022/09/07 05:05:12;;;;;;;3.57;2.13;;;;;;;7.23;100.00;100339.52;1685020;83;22297;-45
2022/09/07 05:07:39;;;;;;;1.90;1.10;;;;;;;7.34;100.00;100336.09;1696507;83;21546;-45
2022/09/07 05:10:06;;;;;;;5.60;3.80;;;;;;;7.46;100.00;100340.69;1700075;83;21049;-46
2022/09/07 05:12:33;;;;;;;2.43;1.43;;;;;;;7.58;100.00;100339.00;1698519;83;21136;-45
2022/09/07 05:14:59;;;;;;;2.50;1.40;;;;;;;7.72;100.00;100336.42;1695407;83;21333;-44
2022/09/07 05:17:26;;;;;;;2.40;0.93;;;;;;;7.83;100.00;100336.53;1695451;83;21551;-46
2022/09/07 05:19:53;;;;;;;1.73;0.90;;;;;;;7.94;100.00;100335.78;1703985;83;20974;-45
2022/09/07 05:22:20;;;;;;;3.30;0.93;;;;;;;8.06;100.00;100333.22;1704776;83;21034;-45
2022/09/07 05:24:46;;;;;;;1.40;0.90;;;;;;;8.18;100.00;100338.21;1704002;83;21544;-45
2022/09/07 05:27:12;;;;;;;1.70;0.93;;;;;;;8.29;100.00;100328.52;1701316;83;21045;-46
2022/09/07 05:29:39;;;;;;;1.17;0.90;;;;;;;8.40;100.00;100331.80;1703531;83;21065;-46
2022/09/07 05:32:05;;;;;;;1.60;1.00;;;;;;;8.53;100.00;100331.83;1702285;83;21113;-45
2022/09/07 05:34:32;;;;;;;2.67;1.37;;;;;;;8.64;100.00;100334.19;1704496;83;21430;-44
2022/09/07 05:36:59;;;;;;;1.83;1.10;;;;;;;8.74;100.00;100326.27;1698373;81;21086;-45
2022/09/07 05:39:25;;;;;;;2.95;1.10;;;;;;;8.85;100.00;100332.15;1700432;83;21413;-44
2022/09/07 05:41:53;;;;;;;4.30;0.88;;;;;;;8.98;100.00;100325.47;1702921;83;21030;-45
2022/09/07 05:44:20;;;;;;;2.62;0.60;;;;;;;9.13;100.00;100323.20;1700995;83;21001;-45
2022/09/07 05:46:48;;;;;;;1.00;0.80;;;;;;;9.26;100.00;100320.53;1701105;83;20997;-44
2022/09/07 05:49:15;;;;;;;2.20;0.78;;;;;;;9.41;100.00;100319.54;1704485;83;21177;-45
2022/09/07 05:51:41;;;;;;;2.45;0.70;;;;;;;9.57;100.00;100313.16;1702751;83;20919;-44
2022/09/07 05:54:09;;;;;;;1.60;0.60;;;;;;;9.70;100.00;100318.50;1704765;83;21531;-44
2022/09/07 05:56:36;;;;;;;2.87;0.75;;;;;;;9.83;100.00;100315.80;1700769;82;21062;-44
2022/09/07 05:59:04;;;;;;;4.67;0.60;;;;;;;9.98;100.00;100317.04;1681027;82;21145;-45
2022/09/07 06:01:30;;;;;;;1.65;0.80;;;;;;;10.10;100.00;100323.80;1688382;82;22474;-45
2022/09/07 06:03:56;;;;;;;2.05;0.70;;;;;;;10.20;100.00;100320.74;1682626;82;21082;-44
2022/09/07 06:06:23;;;;;;;1.87;0.90;;;;;;;10.30;100.00;100317.67;1684671;82;21680;-45
2022/09/07 06:08:51;;;;;;;4.55;0.95;;;;;;;10.38;100.00;100323.67;1687278;82;21153;-44
2022/09/07 06:11:21;;;;;;;2.10;0.85;;;;;;;10.48;100.00;100316.97;1686593;82;21161;-44
2022/09/07 06:13:49;;;;;;;1.90;0.90;;;;;;;10.58;100.00;100325.09;1683170;82;21565;-45
2022/09/07 06:16:17;;;;;;;3.52;1.00;;;;;;;10.67;100.00;100324.74;1680679;82;21140;-45
2022/09/07 06:18:45;;;;;;;3.90;1.40;;;;;;;10.75;100.00;100327.12;1682296;82;21070;-45
2022/09/07 06:21:20;;;;;;;3.55;1.20;;;;;;;10.82;100.00;100333.55;1684237;82;21087;-46
2022/09/07 06:23:47;;;;;;;1.55;0.90;;;;;;;10.88;100.00;100329.29;1684203;82;21078;-45
2022/09/07 06:26:15;;;;;;;2.52;1.02;;;;;;;10.95;100.00;100324.05;1681310;82;21136;-46
2022/09/07 06:28:43;;;;;;;3.10;1.52;;;;;;;11.04;100.00;100325.50;1685669;82;21117;-45
2022/09/07 06:31:18;;;;;;;6.87;1.42;;;;;;;11.12;100.00;100327.87;1683570;82;21070;-45
2022/09/07 06:33:46;;;;;;;1.90;1.37;;;;;;;11.19;100.00;100334.28;1679692;82;21066;-45
2022/09/07 06:36:18;;;;;;;3.15;2.00;;;;;;;11.24;100.00;100333.61;1681372;82;21128;-45
2022/09/07 06:38:45;;;;;;;5.08;2.02;;;;;;;11.31;100.00;100338.30;1681971;82;21462;-45
2022/09/07 06:41:21;;;;;;;3.87;1.47;;;;;;;11.38;100.00;100331.70;1688401;82;21782;-46
2022/09/07 06:43:48;;;;;;;3.62;1.60;;;;;;;11.46;100.00;100334.95;1683982;82;21039;-46
2022/09/07 06:46:15;;;;;;;4.03;1.70;;;;;;;11.55;100.00;100340.42;1686157;82;20983;-46
2022/09/07 06:48:41;;;;;;;3.20;1.80;;;;;;;11.63;100.00;100339.14;1682103;82;21126;-46
2022/09/07 06:51:17;;;;;;;2.15;1.50;;;;;;;11.71;100.00;100334.77;1683130;82;21070;-46
2022/09/07 06:53:46;;;;;;;2.87;1.57;;;;;;;11.78;100.00;100337.62;1684302;82;21027;-46
2022/09/07 06:56:17;;;;;;;3.75;2.20;;;;;;;11.88;100.00;100334.94;1684899;82;21098;-45
2022/09/07 06:58:44;;;;;;;3.80;1.65;;;;;;;11.98;100.00;100325.49;1682531;82;21635;-46
2022/09/07 07:01:16;;;;;;;2.80;2.17;;;;;;;12.07;100.00;100325.55;1686609;82;21130;-46
2022/09/07 07:03:43;;;;;;;3.35;1.85;;;;;;;12.15;100.00;100338.70;1683392;82;21604;-46
2022/09/07 07:06:09;;;;;;;2.77;1.77;;;;;;;12.26;100.00;100328.27;1686073;82;21070;-45
2022/09/07 07:11:10;;;;;;;2.00;1.77;;;;;;;12.56;100.00;100332.72;1787820;78;22540;-46
2022/09/07 07:13:39;;;;;;;2.67;1.82;;;;;;;12.63;100.00;100330.12;1766577;79;20985;-46
2022/09/07 07:16:10;;;;;;;1.90;1.30;;;;;;;12.73;100.00;100341.78;1763212;80;21759;-47
2022/09/07 07:18:37;;;;;;;1.80;1.50;;;;;;;12.84;100.00;100329.12;1765533;79;21057;-46
2022/09/07 07:21:12;;;;;;;6.45;1.40;;;;;;;12.95;100.00;100334.86;1763673;79;21049;-46
2022/09/07 07:23:39;;;;;;;2.92;1.72;;;;;;;13.01;100.00;100325.13;1763847;78;21508;-45
2022/09/07 07:26:14;;;;;;;1.90;1.05;;;;;;;13.08;100.00;100333.80;1767814;79;21492;-46
2022/09/07 07:28:46;;;;;;;1.32;0.90;;;;;;;13.12;100.00;100328.15;1763872;78;21142;-45
2022/09/07 07:31:13;;;;;;;3.10;1.02;;;;;;;13.19;100.00;100327.39;1768861;80;21076;-46
2022/09/07 07:33:40;;;;;;;1.52;1.02;;;;;;;13.26;100.00;100316.70;1766377;79;21085;-46
2022/09/07 07:36:17;;;;;;;1.30;0.80;;;;;;;13.30;100.00;100315.58;1767119;79;21112;-45
2022/09/07 07:38:48;;;;;;;2.75;0.95;;;;;;;13.37;100.00;100313.43;1767719;79;21001;-46
2022/09/07 07:41:16;;;;;;;1.05;0.70;;;;;;;13.48;100.00;100303.83;1709800;81;21136;-46
2022/09/07 07:43:43;;;;;;;1.17;0.70;;;;;;;13.59;100.00;100310.92;1710815;82;21053;-46
2022/09/07 07:46:13;;;;;;;2.65;0.70;;;;;;;13.71;100.00;100308.51;1708205;83;21109;-45
2022/09/07 07:48:40;;;;;;;0.90;0.50;;;;;;;13.71;100.00;100308.51;1708912;83;22096;-46
2022/09/07 07:51:13;;;;;;;1.37;0.70;;;;;;;13.80;100.00;100310.26;1708138;83;21532;-46
2022/09/07 07:53:38;;;;;;;0.90;0.70;;;;;;;13.80;100.00;100310.26;1705834;83;21176;-45
2022/09/07 07:56:05;;;;;;;1.65;0.60;;;;;;;13.86;100.00;100315.84;1707500;81;21096;-46
2022/09/07 07:58:33;;;;;;;1.92;0.60;;;;;;;13.94;100.00;100308.20;1697075;82;21058;-47
2022/09/07 08:01:06;;;;;;;4.40;0.85;;;;;;;13.99;100.00;100302.05;1692625;82;21096;-45
2022/09/07 08:03:35;;;;;;;0.60;0.57;;;;;;;14.03;100.00;100297.36;1693859;82;21515;-46
2022/09/07 08:06:10;;;;;;;0.90;0.55;;;;;;;14.10;100.00;100302.83;1696594;82;21147;-46
2022/09/07 08:08:36;;;;;;;0.80;0.60;;;;;;;14.15;100.00;100297.55;1696092;82;20907;-47
2022/09/07 08:11:09;;;;;;;0.85;0.40;;;;;;;14.23;100.00;100297.13;1666899;82;21092;-46
2022/09/07 08:13:39;;;;;;;0.50;0.30;;;;;;;14.31;100.00;100299.81;1702188;81;20989;-47
2022/09/07 08:16:06;;;;;;;0.60;0.30;;;;;;;14.38;100.00;100297.20;1708959;81;20961;-47
2022/09/07 08:18:34;;;;;;;0.72;0.40;;;;;;;14.45;100.00;100296.88;1712270;81;21220;-47
2022/09/07 08:21:02;;;;;;;0.75;0.45;;;;;;;14.51;100.00;100286.57;1711810;81;21103;-45
2022/09/07 08:23:30;;;;;;;0.60;0.42;;;;;;;14.53;100.00;100290.08;1707740;82;20906;-47
2022/09/07 08:25:57;;;;;;;1.57;0.45;;;;;;;14.55;100.00;100280.48;1710469;82;20879;-46
2022/09/07 08:28:25;;;;;;;0.80;0.50;;;;;;;14.59;100.00;100284.30;1709098;81;20973;-46
2022/09/07 08:30:52;;;;;;;2.30;0.60;;;;;;;14.65;100.00;100274.94;1707261;82;21196;-47
2022/09/07 08:33:19;;;;;;;0.70;0.50;;;;;;;14.66;100.00;100268.09;1709123;81;20934;-46
2022/09/07 08:35:58;;;;;;;1.30;0.57;;;;;;;14.67;100.00;100266.25;1709133;82;20945;-47
2022/09/07 08:38:24;;;;;;;1.40;0.60;;;;;;;14.66;100.00;100268.09;1708449;82;20977;-47
2022/09/07 08:40:50;;;;;;;1.70;0.90;;;;;;;14.62;100.00;100267.02;1707944;81;21496;-47
2022/09/07 08:43:39;;;;;;;0.82;0.60;;;;;;;14.57;100.00;100261.84;1712830;82;21081;-46
2022/09/07 08:46:17;;;;;;;2.33;0.62;;;;;;;14.56;100.00;100259.20;1712126;82;21447;-47
2022/09/07 08:48:43;;;;;;;3.15;0.70;;;;;;;14.56;100.00;100254.66;1705992;81;20962;-46
2022/09/07 08:51:17;;;;;;;3.30;0.80;;;;;;;14.61;100.00;100256.66;1705375;82;21108;-46
2022/09/07 08:53:45;;;;;;;;;;;;;;;14.69;100.00;100252.15;1711968;81;21564;-46
2022/09/07 08:56:19;;;;;;;2.40;0.75;;;;;;;14.80;100.00;100245.61;1709203;82;21199;-47
2022/09/07 08:58:50;;;;;;;;;;;;;;;14.92;100.00;100240.84;1714840;82;21206;-48
2022/09/07 09:01:20;;;;;;;1.55;0.80;;;;;;;15.02;100.00;100246.61;1710516;82;20174;-47
2022/09/07 09:03:47;;;;;;;2.42;0.95;;;;;;;15.05;100.00;100247.80;1704923;82;21115;-47
2022/09/07 09:06:51;;;;;;;2.08;0.80;;;;;;;15.04;100.00;100241.98;1707599;82;21108;-46
2022/09/07 09:09:35;;;;;;;2.37;0.78;;;;;;;15.02;100.00;100246.12;1710255;82;21127;-45
2022/09/07 09:12:16;;;;;;;2.77;0.80;;;;;;;14.94;100.00;100248.41;1716816;80;21104;-46
2022/09/07 09:14:57;;;;;;;1.25;0.80;;;;;;;14.85;100.00;100241.30;1733818;80;21093;-46
2022/09/07 09:17:35;;;;;;;1.10;0.75;;;;;;;14.81;100.00;100237.00;1733179;80;21720;-47
2022/09/07 09:20:25;;;;;;;1.22;0.80;;;;;;;14.83;100.00;100229.18;1733568;80;21565;-45
2022/09/07 09:23:03;;;;;;;1.67;0.70;;;;;;;14.94;100.00;100225.86;1665410;83;21432;-46
2022/09/07 09:25:32;;;;;;;1.12;0.80;;;;;;;15.05;100.00;100224.75;1729340;80;21046;-47
2022/09/07 09:27:59;;;;;;;1.87;0.65;;;;;;;15.11;100.00;100225.73;1738551;80;21073;-45
2022/09/07 09:30:26;;;;;;;1.00;0.80;;;;;;;15.12;100.00;100216.64;1730623;80;21687;-46
2022/09/07 09:33:04;;;;;;;2.60;0.80;;;;;;;15.16;100.00;100220.89;1738487;80;21065;-46
2022/09/07 09:35:34;;;;;;;1.00;0.68;;;;;;;15.18;100.00;100214.03;1718885;80;21432;-46
2022/09/07 09:38:02;;;;;;;1.42;0.70;;;;;;;15.15;100.00;100216.44;1734579;80;21081;-47
2022/09/07 09:40:35;;;;;;;1.37;0.60;;;;;;;15.13;100.00;100204.35;1731319;80;21446;-46
2022/09/07 09:43:19;;;;;;;0.80;0.70;;;;;;;15.14;100.00;100206.06;1732989;80;21065;-46
2022/09/07 09:45:49;;;;;;;0.78;0.50;;;;;;;15.22;100.00;100206.13;1729981;80;21480;-46
2022/09/07 09:48:24;;;;;;;0.90;0.60;;;;;;;15.37;100.00;100187.55;1670150;83;21553;-46
2022/09/07 09:50:52;;;;;;;2.80;0.60;;;;;;;15.53;100.00;100181.58;1730874;80;21061;-46
2022/09/07 09:53:34;;;;;;;1.00;0.70;;;;;;;15.66;100.00;100179.86;1667263;84;21110;-46
2022/09/07 09:56:02;;;;;;;1.00;0.70;;;;;;;15.76;100.00;100182.88;1735113;80;21426;-47
2022/09/07 09:58:34;;;;;;;2.70;0.70;;;;;;;15.85;100.00;100175.03;1735261;80;21038;-46
2022/09/07 10:01:06;;;;;;;0.60;0.60;;;;;;;15.92;100.00;100172.80;1729149;80;21195;-46
2022/09/07 10:03:33;;;;;;;0.60;0.50;;;;;;;16.00;100.00;100167.75;1734505;80;21085;-47
2022/09/07 10:06:02;;;;;;;1.60;0.65;;;;;;;16.06;100.00;100173.30;1695808;82;21061;-46
2022/09/07 10:08:30;;;;;;;0.80;0.47;;;;;;;16.05;100.00;100164.27;1732382;80;21514;-47
2022/09/07 10:11:00;;;;;;;0.82;0.53;;;;;;;16.09;100.00;100174.44;1737862;80;21559;-46
2022/09/07 10:13:31;;;;;;;0.80;0.40;;;;;;;16.11;100.00;100172.02;1746606;80;21221;-48
2022/09/07 10:15:58;;;;;;;1.37;0.50;;;;;;;16.14;100.00;100169.11;1743827;80;21163;-47
2022/09/07 10:18:40;;;;;;;0.57;0.50;;;;;;;16.20;100.00;100170.55;1746549;80;21147;-46
2022/09/07 10:21:25;;;;;;;0.60;0.50;;;;;;;16.22;100.00;100157.75;1720372;80;21144;-48
2022/09/07 10:23:55;;;;;;;0.88;0.50;;;;;;;16.25;100.00;100171.11;1657608;83;21591;-47
2022/09/07 10:26:37;;;;;;;1.70;0.60;;;;;;;16.25;100.00;100165.68;1688161;83;21136;-47
2022/09/07 10:29:29;;;;;;;0.60;0.50;;;;;;;16.23;100.00;100156.78;1713470;82;21101;-47
2022/09/07 10:32:39;;;;;;;1.55;0.50;;;;;;;16.23;100.00;100163.58;1673481;83;21098;-45
2022/09/07 10:35:28;;;;;;;0.60;0.50;;;;;;;16.30;100.00;100157.25;1679811;83;21039;-46
2022/09/07 10:38:16;;;;;;;1.30;0.50;;;;;;;16.30;100.00;100152.69;1691121;82;21128;-46
2022/09/07 10:40:57;;;;;;;1.90;0.50;;;;;;;16.35;100.00;100156.45;1706237;82;21739;-45
2022/09/07 10:43:48;;;;;;;0.70;0.60;;;;;;;16.32;100.00;100146.68;1707868;82;21061;-46
2022/09/07 10:46:32;;;;;;;0.70;0.57;;;;;;;16.22;100.00;100145.05;1677908;83;22574;-45
2022/09/07 10:49:44;;;;;;;0.70;0.60;;;;;;;16.17;100.00;100140.86;1706308;82;21081;-45
2022/09/07 10:52:22;;;;;;;1.85;0.60;;;;;;;16.17;100.00;100134.08;1705755;82;21506;-47
2022/09/07 10:55:01;;;;;;;1.20;0.70;;;;;;;16.22;100.00;100139.61;1707865;82;21151;-45
2022/09/07 10:57:51;;;;;;;0.70;0.60;;;;;;;16.25;100.00;100131.73;1712318;82;21061;-45
2022/09/07 11:00:21;;;;;;;1.17;0.53;;;;;;;16.29;100.00;100137.36;1681550;83;21104;-46
2022/09/07 11:03:15;;;;;;;0.70;0.55;;;;;;;16.35;100.00;100128.80;1683870;83;21093;-46
2022/09/07 11:05:56;;;;;;;1.82;0.60;;;;;;;16.37;100.00;100118.70;1692726;82;21634;-47
2022/09/07 11:09:07;;;;;;;1.50;0.60;;;;;;;16.41;100.00;100122.11;1709473;82;21947;-46
2022/09/07 11:11:41;;;;;;;0.82;0.60;;;;;;;16.45;100.00;100117.71;1701048;82;21093;-47
2022/09/07 11:14:13;;;;;;;2.52;0.60;;;;;;;16.50;100.00;100115.55;1691087;82;21129;-46
2022/09/07 11:16:46;;;;;;;0.80;0.50;;;;;;;16.54;100.00;100110.30;1697153;82;21029;-46
2022/09/07 11:19:16;;;;;;;0.70;0.53;;;;;;;16.58;100.00;100105.55;1732745;80;20942;-47
2022/09/07 11:21:58;;;;;;;2.10;0.60;;;;;;;16.56;100.00;100103.42;1733598;81;21065;-46
2022/09/07 11:24:35;;;;;;;1.40;0.50;;;;;;;16.56;100.00;100104.77;1735251;80;21567;-47
2022/09/07 11:27:10;;;;;;;1.22;0.45;;;;;;;16.58;100.00;100106.91;1666902;83;21118;-46
2022/09/07 11:29:50;;;;;;;0.62;0.50;;;;;;;16.62;100.00;100106.62;1741942;80;20954;-44
2022/09/07 11:32:27;;;;;;;0.68;0.50;;;;;;;16.69;100.00;100098.04;1700029;82;21667;-45
2022/09/07 11:35:20;;;;;;;0.40;0.40;;;;;;;16.73;100.00;100099.59;1731686;80;21797;-48
2022/09/07 11:37:54;;;;;;;0.60;0.40;;;;;;;16.76;100.00;100099.39;1671887;83;21350;-47
2022/09/07 11:40:45;;;;;;;1.75;0.40;;;;;;;16.79;100.00;100098.67;1735367;80;20930;-44
2022/09/07 11:43:22;;;;;;;0.93;0.50;;;;;;;16.80;100.00;100081.88;1721017;80;20974;-45
2022/09/07 11:46:05;;;;;;;1.30;0.40;;;;;;;16.75;100.00;100079.98;1739380;80;20919;-45